createdAt,value
2018-04-09T00:01:08.480Z,6.47
2018-04-09T00:03:36.599Z,7.17
2018-04-09T00:06:04.559Z,7.00
2018-04-09T00:08:31.498Z,6.67
2018-04-09T00:10:58.396Z,6.33
2018-04-09T00:13:26.891Z,7.00
2018-04-09T00:15:53.960Z,7.40
2018-04-09T00:18:21.029Z,7.30
2018-04-09T00:20:47.641Z,6.93
2018-04-09T00:23:15.653Z,6.40
2018-04-09T00:25:43.357Z,6.70
2018-04-09T00:28:11.256Z,6.37
2018-04-09T00:30:38.808Z,6.10
2018-04-09T00:33:05.665Z,7.10
2018-04-09T00:35:32.667Z,6.20
2018-04-09T00:37:59.304Z,6.20
2018-04-09T00:40:25.897Z,6.90
2018-04-09T00:42:53.138Z,6.40
2018-04-09T00:45:19.789Z,5.87
2018-04-09T00:47:46.629Z,5.90
2018-04-09T00:50:13.462Z,7.10
2018-04-09T00:52:40.098Z,6.43
2018-04-09T00:55:06.893Z,6.20
2018-04-09T00:57:33.494Z,6.37
2018-04-09T01:00:00.679Z,6.47
2018-04-09T01:02:28.493Z,6.63
2018-04-09T01:04:55.426Z,6.10
2018-04-09T01:07:22.014Z,6.20
2018-04-09T01:09:49.733Z,5.87
2018-04-09T01:12:16.392Z,7.23
2018-04-09T01:14:43.098Z,6.47
2018-04-09T01:17:09.678Z,5.97
2018-04-09T01:19:36.352Z,6.63
2018-04-09T01:22:02.945Z,6.10
2018-04-09T01:24:29.557Z,7.40
2018-04-09T01:26:56.240Z,6.50
2018-04-09T01:29:23.077Z,10.07
2018-04-09T01:31:49.663Z,7.00
2018-04-09T01:34:16.401Z,7.73
2018-04-09T01:36:43.034Z,7.97
2018-04-09T01:39:09.636Z,6.93
2018-04-09T01:41:36.227Z,6.53
2018-04-09T01:44:02.836Z,6.33
2018-04-09T01:46:29.519Z,6.00
2018-04-09T01:48:56.144Z,6.50
2018-04-09T01:51:22.771Z,6.13
2018-04-09T01:53:49.365Z,6.47
2018-04-09T01:56:16.002Z,6.60
2018-04-09T01:58:42.581Z,5.27
2018-04-09T02:01:09.273Z,6.30
2018-04-09T02:03:35.867Z,6.30
2018-04-09T02:06:02.504Z,6.13
2018-04-09T02:08:29.109Z,5.90
2018-04-09T02:10:55.734Z,6.30
2018-04-09T02:13:22.341Z,5.37
2018-04-09T02:15:48.959Z,5.57
2018-04-09T02:18:15.893Z,5.93
2018-04-09T02:20:42.518Z,6.20
2018-04-09T02:23:09.147Z,6.90
2018-04-09T02:25:35.762Z,6.17
2018-04-09T02:28:02.399Z,7.07
2018-04-09T02:30:28.985Z,6.33
2018-04-09T02:32:55.606Z,6.90
2018-04-09T02:35:22.211Z,7.03
2018-04-09T02:37:48.832Z,6.40
2018-04-09T02:40:15.513Z,6.33
2018-04-09T02:42:42.150Z,6.23
2018-04-09T02:45:08.729Z,7.10
2018-04-09T02:47:35.449Z,6.87
2018-04-09T02:50:02.009Z,6.80
2018-04-09T02:52:28.642Z,6.67
2018-04-09T02:54:55.263Z,7.20
2018-04-09T02:57:21.837Z,6.63
2018-04-09T02:59:48.465Z,6.73
2018-04-09T03:02:15.059Z,6.70
2018-04-09T03:04:41.687Z,6.40
2018-04-09T03:07:08.298Z,6.60
2018-04-09T03:09:34.939Z,6.40
2018-04-09T03:12:01.527Z,7.67
2018-04-09T03:14:28.147Z,7.30
2018-04-09T03:16:54.816Z,7.33
2018-04-09T03:19:21.423Z,6.50
2018-04-09T03:21:48.048Z,6.83
2018-04-09T03:24:15.524Z,7.50
2018-04-09T03:26:42.144Z,7.70
2018-04-09T03:29:08.734Z,7.80
2018-04-09T03:31:35.321Z,7.77
2018-04-09T03:34:01.907Z,8.60
2018-04-09T03:36:28.604Z,7.90
2018-04-09T03:38:55.213Z,7.97
2018-04-09T03:41:21.840Z,7.50
2018-04-09T03:43:48.473Z,7.53
2018-04-09T03:46:15.081Z,7.93
2018-04-09T03:48:41.690Z,7.73
2018-04-09T03:51:09.260Z,8.47
2018-04-09T03:53:35.897Z,8.10
2018-04-09T03:56:02.489Z,8.57
2018-04-09T03:58:29.159Z,8.10
2018-04-09T04:00:55.771Z,8.00
2018-04-09T04:03:22.431Z,7.87
2018-04-09T04:05:49.092Z,8.40
2018-04-09T04:08:15.739Z,8.50
2018-04-09T04:10:42.364Z,8.13
2018-04-09T04:13:08.977Z,7.90
2018-04-09T04:15:41.527Z,6.97
2018-04-09T04:18:13.853Z,8.37
2018-04-09T04:20:46.445Z,8.60
2018-04-09T04:23:13.052Z,8.80
2018-04-09T04:25:39.681Z,8.80
2018-04-09T04:28:06.318Z,8.30
2018-04-09T04:30:32.960Z,7.47
2018-04-09T04:32:59.611Z,8.53
2018-04-09T04:35:26.216Z,8.67
2018-04-09T04:37:52.857Z,9.60
2018-04-09T04:40:19.456Z,8.17
2018-04-09T04:42:46.107Z,7.90
2018-04-09T04:45:12.701Z,9.13
2018-04-09T04:47:39.317Z,8.63
2018-04-09T04:50:05.928Z,9.00
2018-04-09T04:52:32.526Z,7.77
2018-04-09T04:54:59.130Z,9.03
2018-04-09T04:57:25.723Z,8.43
2018-04-09T04:59:52.334Z,8.83
2018-04-09T05:02:18.920Z,8.03
2018-04-09T05:04:45.614Z,8.40
2018-04-09T05:07:12.197Z,9.00
2018-04-09T05:09:38.908Z,10.10
2018-04-09T05:12:05.506Z,8.67
2018-04-09T05:14:32.124Z,8.27
2018-04-09T05:16:58.752Z,9.10
2018-04-09T05:19:25.409Z,8.53
2018-04-09T05:21:52.030Z,8.50
2018-04-09T05:24:18.618Z,9.03
2018-04-09T05:26:45.226Z,8.20
2018-04-09T05:29:11.841Z,8.27
2018-04-09T05:31:38.467Z,8.57
2018-04-09T05:34:05.068Z,8.03
2018-04-09T05:36:31.693Z,8.17
2018-04-09T05:38:58.304Z,8.90
2018-04-09T05:41:25.192Z,8.80
2018-04-09T05:43:52.013Z,8.23
2018-04-09T05:46:18.675Z,8.03
2018-04-09T05:48:45.310Z,7.77
2018-04-09T05:51:11.914Z,8.50
2018-04-09T05:53:38.566Z,7.93
2018-04-09T05:56:05.558Z,8.40
2018-04-09T05:58:32.169Z,8.20
2018-04-09T06:00:58.899Z,8.50
2018-04-09T06:03:25.536Z,8.40
2018-04-09T06:05:52.138Z,8.93
2018-04-09T06:08:18.810Z,8.23
2018-04-09T06:10:45.490Z,8.50
2018-04-09T06:13:12.108Z,8.67
2018-04-09T06:15:38.764Z,7.87
2018-04-09T06:18:05.397Z,8.50
2018-04-09T06:20:32.013Z,7.90
2018-04-09T06:22:58.681Z,7.80
2018-04-09T06:25:25.316Z,8.60
2018-04-09T06:27:51.923Z,7.87
2018-04-09T06:30:18.560Z,8.50
2018-04-09T06:32:45.178Z,10.13
2018-04-09T06:35:11.864Z,9.30
2018-04-09T06:37:38.493Z,12.70
2018-04-09T06:40:05.137Z,13.40
2018-04-09T06:42:31.750Z,12.00
2018-04-09T06:44:58.387Z,11.87
2018-04-09T06:47:25.018Z,11.13
2018-04-09T06:49:51.659Z,10.10
2018-04-09T06:52:18.331Z,10.23
2018-04-09T06:54:44.978Z,9.50
2018-04-09T06:57:11.629Z,9.87
2018-04-09T06:59:38.220Z,8.83
2018-04-09T07:02:04.902Z,9.40
2018-04-09T07:04:31.565Z,9.30
2018-04-09T07:06:58.207Z,9.30
2018-04-09T07:09:24.845Z,9.90
2018-04-09T07:11:51.465Z,9.03
2018-04-09T07:14:18.167Z,9.10
2018-04-09T07:16:44.817Z,9.30
2018-04-09T07:19:11.399Z,9.20
2018-04-09T07:21:38.136Z,10.43
2018-04-09T07:24:04.741Z,7.93
2018-04-09T07:26:31.812Z,9.80
2018-04-09T07:28:58.432Z,9.27
2018-04-09T07:31:25.123Z,8.53
2018-04-09T07:33:51.749Z,9.33
2018-04-09T07:36:18.372Z,9.10
2018-04-09T07:38:45.013Z,9.67
2018-04-09T07:41:11.647Z,9.93
2018-04-09T07:43:38.266Z,10.57
2018-04-09T07:46:04.894Z,9.80
2018-04-09T07:48:31.573Z,10.73
2018-04-09T07:50:58.209Z,9.87
2018-04-09T07:53:24.828Z,11.37
2018-04-09T07:55:51.481Z,9.60
2018-04-09T07:58:18.180Z,10.10
2018-04-09T08:00:44.768Z,8.60
2018-04-09T08:03:11.396Z,9.03
2018-04-09T08:05:38.084Z,9.20
2018-04-09T08:08:04.761Z,11.27
2018-04-09T08:10:31.390Z,11.00
2018-04-09T08:12:58.004Z,9.03
2018-04-09T08:15:24.634Z,9.17
2018-04-09T08:17:51.258Z,9.43
2018-04-09T08:20:18.099Z,9.87
2018-04-09T08:22:44.744Z,9.47
2018-04-09T08:25:11.386Z,9.53
2018-04-09T08:27:37.982Z,10.30
2018-04-09T08:30:04.710Z,10.03
2018-04-09T08:32:31.469Z,10.30
2018-04-09T08:34:58.145Z,10.00
2018-04-09T08:37:24.734Z,9.47
2018-04-09T08:39:51.373Z,9.53
2018-04-09T08:42:18.111Z,8.77
2018-04-09T08:44:44.754Z,8.50
2018-04-09T08:47:11.482Z,7.40
2018-04-09T08:49:38.118Z,7.93
2018-04-09T08:52:04.781Z,8.40
2018-04-09T08:54:31.499Z,8.00
2018-04-09T08:56:58.605Z,8.50
2018-04-09T08:59:25.313Z,7.50
2018-04-09T09:01:52.027Z,7.30
2018-04-09T09:04:18.702Z,7.20
2018-04-09T09:06:45.334Z,6.93
2018-04-09T09:09:11.978Z,7.23
2018-04-09T09:11:38.568Z,7.10
2018-04-09T09:14:05.281Z,6.93
2018-04-09T09:16:31.882Z,6.50
2018-04-09T09:18:58.498Z,5.87
2018-04-09T09:21:25.155Z,7.00
2018-04-09T09:23:51.877Z,6.90
2018-04-09T09:26:18.652Z,7.17
2018-04-09T09:28:45.248Z,6.60
2018-04-09T09:31:11.963Z,7.20
2018-04-09T09:33:38.611Z,6.37
2018-04-09T09:36:05.402Z,6.57
2018-04-09T09:38:32.029Z,6.93
2018-04-09T09:40:58.680Z,7.17
2018-04-09T09:43:25.317Z,7.43
2018-04-09T09:45:51.917Z,8.30
2018-04-09T09:48:18.583Z,8.30
2018-04-09T09:50:45.281Z,8.00
2018-04-09T09:53:11.887Z,8.17
2018-04-09T09:55:38.559Z,8.93
2018-04-09T09:58:05.264Z,8.33
2018-04-09T10:00:37.517Z,8.80
2018-04-09T10:03:04.149Z,8.17
2018-04-09T10:05:30.773Z,7.20
2018-04-09T10:07:57.462Z,8.60
2018-04-09T10:10:24.059Z,7.63
2018-04-09T10:12:50.699Z,7.07
2018-04-09T10:15:17.351Z,8.00
2018-04-09T10:17:43.985Z,8.20
2018-04-09T10:20:10.593Z,8.50
2018-04-09T10:22:37.221Z,8.17
2018-04-09T10:25:03.845Z,8.60
2018-04-09T10:27:30.487Z,8.67
2018-04-09T10:29:57.137Z,8.73
2018-04-09T10:32:23.768Z,8.63
2018-04-09T10:34:50.383Z,9.13
2018-04-09T10:37:17.000Z,8.60
2018-04-09T10:39:43.589Z,8.50
2018-04-09T10:42:10.346Z,8.20
2018-04-09T10:44:37.000Z,7.90
2018-04-09T10:47:03.600Z,8.20
2018-04-09T10:49:30.221Z,8.80
2018-04-09T10:51:56.899Z,9.00
2018-04-09T10:54:23.551Z,7.40
2018-04-09T10:56:50.208Z,7.70
2018-04-09T10:59:16.845Z,8.70
2018-04-09T11:01:43.501Z,7.97
2018-04-09T11:04:10.241Z,8.50
2018-04-09T11:06:36.846Z,8.67
2018-04-09T11:09:03.622Z,9.63
2018-04-09T11:11:30.198Z,8.57
2018-04-09T11:13:57.538Z,8.70
2018-04-09T11:16:24.257Z,10.30
2018-04-09T11:18:50.891Z,9.43
2018-04-09T11:21:17.508Z,11.10
2018-04-09T11:23:44.164Z,11.00
2018-04-09T11:26:10.838Z,10.43
2018-04-09T11:28:37.522Z,10.20
2018-04-09T11:31:04.111Z,9.17
2018-04-09T11:33:30.787Z,9.60
2018-04-09T11:35:57.500Z,10.10
2018-04-09T11:38:24.211Z,9.47
2018-04-09T11:40:50.832Z,8.10
2018-04-09T11:43:17.562Z,6.47
2018-04-09T11:45:44.227Z,6.13
2018-04-09T11:48:10.841Z,7.57
2018-04-09T11:50:37.479Z,6.83
2018-04-09T11:53:04.096Z,6.53
2018-04-09T11:55:30.835Z,6.17
2018-04-09T12:00:23.349Z,5.73
2018-04-09T12:02:50.013Z,5.97
2018-04-09T12:05:16.595Z,6.00
2018-04-09T12:07:43.279Z,6.90
2018-04-09T12:10:10.223Z,5.70
2018-04-09T12:12:38.204Z,6.27
2018-04-09T12:15:04.796Z,6.33
2018-04-09T12:17:31.417Z,6.03
2018-04-09T12:19:58.086Z,6.13
2018-04-09T12:22:24.704Z,6.80
2018-04-09T12:24:51.297Z,5.70
2018-04-09T12:27:17.960Z,9.03
2018-04-09T12:29:44.578Z,5.53
2018-04-09T12:32:11.247Z,7.33
2018-04-09T12:34:37.895Z,5.20
2018-04-09T12:37:04.491Z,5.67
2018-04-09T12:39:31.101Z,5.33
2018-04-09T12:41:57.722Z,5.50
2018-04-09T12:44:24.471Z,5.60
2018-04-09T12:46:51.103Z,5.60
2018-04-09T12:49:18.455Z,6.10
2018-04-09T12:51:45.067Z,5.57
2018-04-09T12:54:11.726Z,5.47
2018-04-09T12:56:38.355Z,5.60
2018-04-09T12:59:04.990Z,5.23
2018-04-09T13:01:31.714Z,4.43
2018-04-09T13:03:58.318Z,5.50
2018-04-09T13:06:24.936Z,5.33
2018-04-09T13:08:51.552Z,4.53
2018-04-09T13:11:18.216Z,5.03
2018-04-09T13:13:45.046Z,4.53
2018-04-09T13:16:11.720Z,4.50
2018-04-09T13:18:38.308Z,4.70
2018-04-09T13:21:05.706Z,5.00
2018-04-09T13:23:32.295Z,4.87
2018-04-09T13:25:58.936Z,4.40
2018-04-09T13:28:25.494Z,4.30
2018-04-09T13:30:52.169Z,4.37
2018-04-09T13:33:18.762Z,4.40
2018-04-09T13:35:45.452Z,4.50
2018-04-09T13:38:11.997Z,4.37
2018-04-09T13:40:38.625Z,4.47
2018-04-09T13:43:05.291Z,4.87
2018-04-09T13:45:32.038Z,4.13
2018-04-09T13:47:58.745Z,3.90
2018-04-09T13:50:25.390Z,4.30
2018-04-09T13:52:52.057Z,4.23
2018-04-09T13:55:18.989Z,4.50
2018-04-09T13:57:46.543Z,4.70
2018-04-09T14:00:13.928Z,4.27
2018-04-09T14:02:40.544Z,3.90
2018-04-09T14:05:07.168Z,4.20
2018-04-09T14:07:33.854Z,3.77
2018-04-09T14:10:00.493Z,3.90
2018-04-09T14:12:27.105Z,4.30
2018-04-09T14:14:53.741Z,4.30
2018-04-09T14:17:21.209Z,3.30
2018-04-09T14:19:48.013Z,3.80
2018-04-09T14:22:14.883Z,3.47
2018-04-09T14:24:41.742Z,3.40
2018-04-09T14:27:08.326Z,3.90
2018-04-09T14:29:38.445Z,4.77
2018-04-09T14:32:06.302Z,4.33
2018-04-09T14:34:33.150Z,4.33
2018-04-09T14:37:00.977Z,4.30
2018-04-09T14:39:28.797Z,4.10
2018-04-09T14:42:07.295Z,4.07
2018-04-09T14:44:34.051Z,4.70
2018-04-09T14:47:02.558Z,4.23
2018-04-09T14:49:29.415Z,5.03
2018-04-09T14:51:57.503Z,4.00
2018-04-09T14:54:26.872Z,4.40
2018-04-09T14:56:53.494Z,4.80
2018-04-09T14:59:29.376Z,3.77
2018-04-09T15:01:55.999Z,4.40
2018-04-09T15:04:22.635Z,3.63
2018-04-09T15:06:49.389Z,4.43
2018-04-09T15:09:16.034Z,4.63
2018-04-09T15:11:43.592Z,4.03
2018-04-09T15:14:10.325Z,5.37
2018-04-09T15:16:36.954Z,5.53
2018-04-09T15:19:03.673Z,4.67
2018-04-09T15:21:30.284Z,5.23
2018-04-09T15:23:56.878Z,4.80
2018-04-09T15:26:23.614Z,5.03
2018-04-09T15:28:50.253Z,4.90
2018-04-09T15:31:16.908Z,5.00
2018-04-09T15:33:43.632Z,5.03
2018-04-09T15:36:10.299Z,5.00
2018-04-09T15:38:36.890Z,5.27
2018-04-09T15:41:03.507Z,5.17
2018-04-09T15:43:31.135Z,4.80
2018-04-09T15:45:57.838Z,6.03
2018-04-09T15:48:26.352Z,4.37
2018-04-09T15:50:53.199Z,4.90
2018-04-09T15:53:19.798Z,4.20
2018-04-09T15:55:46.439Z,4.10
2018-04-09T15:58:13.023Z,4.80
2018-04-09T16:00:39.856Z,8.43
2018-04-09T16:03:06.534Z,7.17
2018-04-09T16:05:33.267Z,8.20
2018-04-09T16:07:59.963Z,6.50
2018-04-09T16:10:26.543Z,6.03
2018-04-09T16:12:53.193Z,7.00
2018-04-09T16:15:20.419Z,6.33
2018-04-09T16:17:53.216Z,5.63
2018-04-09T16:20:19.856Z,4.97
2018-04-09T16:22:47.513Z,5.37
2018-04-09T16:25:14.290Z,5.60
2018-04-09T16:27:41.024Z,4.97
2018-04-09T16:30:07.647Z,5.20
2018-04-09T16:32:34.325Z,5.60
2018-04-09T16:35:00.928Z,4.67
2018-04-09T16:37:27.582Z,5.63
2018-04-09T16:39:54.211Z,5.53
2018-04-09T16:42:21.692Z,6.47
2018-04-09T16:44:48.393Z,5.63
2018-04-09T16:47:15.040Z,5.40
2018-04-09T16:49:41.744Z,5.03
2018-04-09T16:52:08.359Z,4.70
2018-04-09T16:54:36.312Z,5.17
2018-04-09T16:57:03.973Z,5.23
2018-04-09T16:59:30.630Z,5.67
2018-04-09T17:01:57.654Z,5.83
2018-04-09T17:04:24.409Z,6.30
2018-04-09T17:06:51.052Z,5.30
2018-04-09T17:09:17.695Z,5.67
2018-04-09T17:11:44.346Z,6.10
2018-04-09T17:14:11.007Z,7.07
2018-04-09T17:16:37.785Z,10.10
2018-04-09T17:19:04.390Z,6.17
2018-04-09T17:21:31.096Z,6.87
2018-04-09T17:23:57.955Z,6.90
2018-04-09T17:26:24.557Z,6.57
2018-04-09T17:28:51.688Z,6.53
2018-04-09T17:31:18.756Z,6.70
2018-04-09T17:33:45.415Z,10.60
2018-04-09T17:36:12.185Z,7.63
2018-04-09T17:38:38.919Z,9.10
2018-04-09T17:41:05.533Z,9.67
2018-04-09T17:43:32.144Z,12.83
2018-04-09T17:45:58.777Z,9.90
2018-04-09T17:48:25.407Z,9.60
2018-04-09T17:50:52.061Z,18.77
2018-04-09T17:53:18.813Z,11.17
2018-04-09T17:55:45.643Z,11.10
2018-04-09T17:58:12.349Z,10.87
2018-04-09T18:00:38.954Z,12.20
2018-04-09T18:03:05.622Z,11.90
2018-04-09T18:05:32.290Z,12.30
2018-04-09T18:07:59.031Z,13.57
2018-04-09T18:10:25.638Z,14.60
2018-04-09T18:12:52.258Z,12.43
2018-04-09T18:15:18.856Z,12.40
2018-04-09T18:17:45.504Z,13.00
2018-04-09T18:20:12.187Z,12.60
2018-04-09T18:22:38.889Z,12.00
2018-04-09T18:25:05.526Z,12.83
2018-04-09T18:27:32.255Z,11.10
2018-04-09T18:29:59.037Z,14.53
2018-04-09T18:32:26.023Z,15.17
2018-04-09T18:34:52.710Z,16.08
2018-04-09T18:37:19.440Z,16.53
2018-04-09T18:39:46.131Z,16.20
2018-04-09T18:42:13.648Z,15.00
2018-04-09T18:44:40.542Z,14.30
2018-04-09T18:47:07.562Z,14.70
2018-04-09T18:49:34.454Z,15.23
2018-04-09T18:52:01.117Z,17.33
2018-04-09T18:54:28.112Z,15.77
2018-04-09T18:56:54.757Z,16.23
2018-04-09T18:59:21.418Z,16.53
2018-04-09T19:01:48.250Z,15.70
2018-04-09T19:04:15.308Z,25.97
2018-04-09T19:06:42.209Z,17.90
2018-04-09T19:09:08.891Z,14.97
2018-04-09T19:11:35.556Z,18.77
2018-04-09T20:35:59.558Z,8.47
2018-04-09T20:38:26.496Z,8.87
2018-04-09T20:40:53.397Z,8.90
2018-04-09T20:43:20.221Z,9.47
2018-04-09T20:45:47.197Z,8.60
2018-04-09T20:48:14.125Z,8.77
2018-04-09T20:50:41.490Z,9.10
2018-04-09T20:53:08.744Z,8.43
2018-04-09T20:55:35.426Z,9.00
2018-04-09T20:58:02.144Z,15.80
2018-04-09T21:00:28.785Z,9.93
2018-04-09T21:02:55.598Z,9.77
2018-04-09T21:05:22.225Z,8.43
2018-04-09T21:07:48.815Z,9.33
2018-04-09T21:10:15.476Z,8.20
2018-04-09T21:12:42.257Z,7.80
2018-04-09T21:15:08.951Z,8.57
2018-04-09T21:17:35.658Z,8.50
2018-04-09T21:20:02.335Z,9.27
2018-04-09T21:22:28.954Z,12.80
2018-04-09T21:24:55.623Z,10.60
2018-04-09T21:27:22.232Z,8.10
2018-04-09T21:29:48.849Z,7.27
2018-04-09T21:32:16.390Z,14.70
2018-04-09T21:34:43.042Z,8.60
2018-04-09T21:37:09.709Z,13.77
2018-04-09T21:39:36.410Z,19.90
2018-04-09T21:42:03.204Z,10.60
2018-04-09T21:44:29.813Z,12.47
2018-04-09T21:46:56.427Z,8.73
2018-04-09T21:49:23.022Z,8.20
2018-04-09T21:51:49.692Z,8.63
2018-04-09T21:54:16.377Z,8.40
2018-04-09T21:56:43.010Z,8.60
2018-04-09T21:59:09.637Z,8.37
2018-04-09T22:01:36.253Z,8.37
2018-04-09T22:04:03.017Z,8.27
2018-04-09T22:06:29.677Z,8.30
2018-04-09T22:08:56.339Z,8.43
2018-04-09T22:11:22.935Z,8.57
2018-04-09T22:13:49.620Z,8.80
2018-04-09T22:16:16.538Z,8.60
2018-04-09T22:18:43.175Z,8.63
2018-04-09T22:21:09.806Z,8.93
2018-04-09T22:23:36.692Z,8.40
2018-04-09T22:26:03.350Z,8.23
2018-04-09T22:28:29.967Z,9.17
2018-04-09T22:30:56.609Z,9.23
2018-04-09T22:33:23.242Z,9.17
2018-04-09T22:35:49.843Z,9.33
2018-04-09T22:38:16.434Z,8.40
2018-04-09T22:40:43.044Z,8.80
2018-04-09T22:43:09.645Z,9.20
2018-04-09T22:45:36.355Z,10.23
2018-04-09T22:48:03.062Z,9.00
2018-04-09T22:50:29.780Z,10.17
2018-04-09T22:52:56.573Z,9.97
2018-04-09T22:55:23.981Z,10.67
2018-04-09T22:57:50.649Z,10.90
2018-04-09T23:00:17.246Z,10.90
2018-04-09T23:02:43.854Z,11.97
2018-04-09T23:05:10.456Z,11.47
2018-04-09T23:07:37.151Z,10.60
2018-04-09T23:10:03.999Z,10.97
2018-04-09T23:12:30.618Z,11.27
2018-04-09T23:14:57.299Z,11.10
2018-04-09T23:17:23.963Z,11.70
2018-04-09T23:19:50.593Z,12.13
2018-04-09T23:22:23.203Z,12.43
2018-04-09T23:24:49.822Z,11.90
2018-04-09T23:27:16.449Z,11.77
2018-04-09T23:29:43.079Z,12.50
2018-04-09T23:32:09.676Z,13.33
2018-04-09T23:34:36.282Z,12.67
2018-04-09T23:37:02.986Z,12.43
2018-04-09T23:39:29.624Z,12.57
2018-04-09T23:41:56.595Z,12.37
2018-04-09T23:44:23.455Z,12.40
2018-04-09T23:46:50.067Z,13.37
2018-04-09T23:49:16.662Z,13.03
2018-04-09T23:51:43.285Z,12.40
2018-04-09T23:54:10.185Z,13.40
2018-04-09T23:56:37.061Z,12.17
2018-04-09T23:59:03.667Z,13.23
